Список аэропортов
Фактическая погода:

19 августа, 04:30
Температура: +13°C (+13.0*)
Ветер: юго-восточный 1 м/с
Давление: *760 мм
Без существ. явл.
Время (МСК)Темп. СВетерВлажностьДавлениеОблачностьОсадки
03:00+12Ю, 2 м/с98%1015 гПамалооблачно
04:00+12Ю, 1 м/с98%1015 гПаясно
05:00+12ЮВ, 2 м/с98%1015 гПаясно
06:00+12ЮВ, 2 м/с98%1015 гПамалооблачно
07:00+13ЮВ, 2 м/с95%1015 гПамалооблачно
08:00+15Ю, 2 м/с90%1015 гПамалооблачно
09:00+18Ю, 3 м/с78%1015 гПамалооблачно
10:00+21ЮВ, 3 м/с70%1015 гПамалооблачно
11:00+23Ю, 3 м/с65%1015 гПамалооблачно
12:00+23Ю, 4 м/с63%1016 гПаоблачно
13:00+23ЮВ, 4 м/с66%1016 гПас прояснениями
14:00+26Ю, 5 м/с56%1016 гПаясно
15:00+26Ю, 5 м/с53%1015 гПаясно
16:00+26Ю, 5 м/с54%1015 гПамалооблачно
17:00+26Ю, 4 м/с55%1016 гПас прояснениями
18:00+25ЮВ, 4 м/с60%1016 гПас прояснениями
19:00+24ЮВ, 3 м/с66%1016 гПамалооблачно
20:00+23ЮВ, 3 м/с75%1016 гПамалооблачно
21:00+21ЮВ, 3 м/с82%1016 гПаясно
22:00+20ЮВ, 3 м/с86%1016 гПаясно
23:00+20ЮВ, 3 м/с86%1016 гПаясно
20 августа
00:00+20ЮВ, 3 м/с86%1017 гПамалооблачно
01:00+19ЮВ, 3 м/с87%1017 гПас прояснениями
02:00+19ЮВ, 3 м/с89%1017 гПамалооблачно
03:00+18ЮВ, 3 м/с91%1017 гПамалооблачно
04:00+18ЮВ, 3 м/с93%1017 гПаясно
05:00+17ЮВ, 3 м/с94%1017 гПаясно
06:00+17Ю, 3 м/с96%1017 гПаясно
07:00+16Ю, 2 м/с97%1018 гПаясно
08:00+18Ю, 1 м/с93%1018 гПамалооблачно
09:00+20ЮЗ, 1 м/с87%1019 гПамалооблачно
10:00+21СЗ, 2 м/с83%1019 гПас прояснениями
11:00+22СЗ, 3 м/с80%1020 гПаоблачно
12:00+23СЗ, 3 м/с74%1020 гПаоблачно
13:00+24С, 3 м/с66%1021 гПас прояснениями
14:00+25С, 3 м/с63%1021 гПамалооблачно
15:00+25СЗ, 4 м/с63%1021 гПас прояснениями
16:00+24СЗ, 4 м/с64%1021 гПас прояснениями
17:00+23СЗ, 3 м/с65%1022 гПаоблачно
18:00+23СЗ, 4 м/с65%1022 гПаясно
19:00+22СЗ, 4 м/с64%1023 гПаясно
20:00+20СЗ, 2 м/с73%1023 гПаясно
21:00+18СЗ, 2 м/с83%1023 гПаоблачно
22:00+17СЗ, 2 м/с86%1024 гПас прояснениями
23:00+16СЗ, 2 м/с86%1024 гПаоблачно
21 августа
00:00+15С, 2 м/с91%1024 гПамалооблачно
01:00+15С, 2 м/с91%1025 гПас прояснениями
02:00+14С, 2 м/с96%1025 гПас прояснениями
03:00+13С, 2 м/с97%1025 гПамалооблачно